Time;durP1;ratioP1;P1;durP2;ratioP2;P2;SDS_P1;SDS_P2;PMS_P1;PMS_P2;Temp;Humidity;BMP_temperature;BMP_pressure;BME280_temperature;BME280_humidity;BME280_pressure;Samples;Min_cycle;Max_cycle;Signal;HPM_P1;HPM_P2
2022/03/19 00:02:21;;;;;;;44.20;40.53;;;;;;;22.88;22.49;97000.44;6115422;28;102760;-43
2022/03/19 00:05:23;;;;;;;43.10;39.40;;;;;;;22.87;22.89;96998.81;6126923;28;102804;-45
2022/03/19 00:08:26;;;;;;;42.43;38.83;;;;;;;22.86;22.72;96994.56;6130646;28;103132;-44
2022/03/19 00:11:28;;;;;;;41.53;37.90;;;;;;;22.88;22.81;96994.28;6116563;28;103295;-44
2022/03/19 00:14:30;;;;;;;40.27;36.97;;;;;;;22.87;22.74;96995.34;6130838;28;103867;-45
2022/03/19 00:17:32;;;;;;;42.07;38.30;;;;;;;22.85;22.43;96990.28;6128758;28;102989;-43
2022/03/19 00:20:36;;;;;;;40.60;37.10;;;;;;;22.87;22.34;96993.50;6130530;28;103333;-44
2022/03/19 00:23:38;;;;;;;40.37;36.97;;;;;;;22.87;22.45;96993.50;6133042;28;102691;-45
2022/03/19 00:26:40;;;;;;;39.40;36.00;;;;;;;22.87;22.38;96993.50;6125639;28;103323;-44
2022/03/19 00:29:41;;;;;;;38.40;35.10;;;;;;;22.89;22.65;96994.03;6116365;28;103313;-44
2022/03/19 00:32:43;;;;;;;37.67;34.67;;;;;;;22.88;22.65;96994.28;6132843;28;102732;-44
2022/03/19 00:35:45;;;;;;;39.30;36.10;;;;;;;22.88;22.25;96992.44;6131567;28;103358;-43
2022/03/19 00:38:47;;;;;;;38.10;35.00;;;;;;;22.87;22.45;96985.50;6127116;28;102982;-44
2022/03/19 00:41:49;;;;;;;36.53;33.40;;;;;;;22.87;22.08;96988.16;6130373;28;102853;-43
2022/03/19 00:44:50;;;;;;;35.17;32.30;;;;;;;22.85;22.50;96990.28;6132426;28;103137;-43
2022/03/19 00:47:52;;;;;;;35.40;32.43;;;;;;;22.86;22.22;96989.22;6126125;28;102876;-44
2022/03/19 00:50:55;;;;;;;34.63;31.73;;;;;;;22.85;22.31;96990.28;6131130;28;103202;-44
2022/03/19 00:53:56;;;;;;;34.10;31.40;;;;;;;22.85;21.92;96990.28;6131497;28;102744;-45
2022/03/19 00:56:58;;;;;;;33.60;30.70;;;;;;;22.86;22.41;96997.22;6134562;28;103179;-43
2022/03/19 01:00:00;;;;;;;34.73;31.83;;;;;;;22.86;22.49;96999.88;6127210;28;103109;-44
2022/03/19 01:03:02;;;;;;;34.47;31.67;;;;;;;22.85;22.05;97000.94;6135348;28;102803;-43
2022/03/19 01:06:04;;;;;;;34.70;31.87;;;;;;;22.85;22.24;96995.59;6132219;28;102868;-43
2022/03/19 01:09:06;;;;;;;34.53;31.70;;;;;;;22.85;22.22;96998.28;6135183;28;102744;-44
2022/03/19 01:12:08;;;;;;;34.47;31.63;;;;;;;22.86;21.99;96993.75;6129733;28;102828;-43
2022/03/19 01:15:10;;;;;;;33.80;30.90;;;;;;;22.86;21.99;96993.75;6135137;28;103700;-43
2022/03/19 01:18:12;;;;;;;33.00;30.33;;;;;;;22.86;22.38;96991.09;6135785;28;102731;-44
2022/03/19 01:21:14;;;;;;;33.23;30.50;;;;;;;22.87;22.26;96987.34;6130154;28;102826;-44
2022/03/19 01:24:16;;;;;;;32.60;29.80;;;;;;;22.87;22.38;96990.03;6134429;28;102780;-43
2022/03/19 01:27:18;;;;;;;30.90;28.40;;;;;;;22.87;21.77;96988.16;6135304;28;102884;-43
2022/03/19 01:30:21;;;;;;;31.53;28.73;;;;;;;22.87;22.04;96985.50;6133620;28;103114;-43
2022/03/19 01:33:23;;;;;;;29.47;27.17;;;;;;;22.88;22.04;96981.75;6125926;28;102949;-44
2022/03/19 01:36:25;;;;;;;29.60;27.00;;;;;;;22.87;22.13;96971.38;6136112;28;102977;-43
2022/03/19 01:39:27;;;;;;;30.47;27.97;;;;;;;22.89;21.99;96975.38;6133922;28;103174;-43
2022/03/19 01:42:34;;;;;;;28.97;26.67;;;;;;;22.89;21.95;96969.25;6132947;28;103512;-44
2022/03/19 01:45:36;;;;;;;28.00;25.60;;;;;;;22.89;22.17;96971.91;6133705;28;102809;-43
2022/03/19 01:48:37;;;;;;;28.93;26.57;;;;;;;22.87;21.99;96964.16;6132993;28;103128;-44
2022/03/19 01:51:39;;;;;;;27.13;24.93;;;;;;;22.88;22.12;96967.63;6133874;28;103127;-43
2022/03/19 01:54:47;;;;;;;26.80;24.43;;;;;;;22.86;22.21;96965.22;6129619;28;104558;-44
2022/03/19 01:57:50;;;;;;;26.07;23.97;;;;;;;22.87;21.98;96963.38;6122066;28;102656;-43
2022/03/19 02:00:53;;;;;;;25.43;23.43;;;;;;;22.85;21.96;96962.81;6135596;28;103362;-43
2022/03/19 02:03:56;;;;;;;25.17;23.10;;;;;;;22.85;22.00;96960.16;6134030;28;104153;-44
2022/03/19 02:06:59;;;;;;;24.30;22.40;;;;;;;22.85;21.97;96960.16;6111624;28;103619;-43
2022/03/19 02:10:01;;;;;;;24.60;22.50;;;;;;;22.84;21.96;96959.31;6135273;28;103139;-44
2022/03/19 02:13:03;;;;;;;24.30;22.33;;;;;;;22.84;21.99;96956.66;6134060;28;102755;-43
2022/03/19 02:16:05;;;;;;;23.83;21.73;;;;;;;22.84;21.96;96956.66;6128074;28;103446;-43
2022/03/19 02:19:07;;;;;;;21.70;20.00;;;;;;;22.85;21.89;96944.16;6135547;28;103386;-43
2022/03/19 02:22:09;;;;;;;22.17;20.37;;;;;;;22.85;22.12;96950.31;6134876;28;102781;-43
2022/03/19 02:28:31;;;;;;;19.77;18.27;;;;;;;22.85;21.73;96950.31;6121691;28;102919;-44
2022/03/19 02:31:32;;;;;;;20.20;18.50;;;;;;;22.85;21.57;96947.63;6133759;28;102828;-44
2022/03/19 02:34:34;;;;;;;20.07;18.47;;;;;;;22.85;21.97;96952.16;6133800;28;102817;-44
2022/03/19 02:37:38;;;;;;;19.60;18.00;;;;;;;22.82;21.68;96948.13;6130748;28;103510;-43
2022/03/19 02:40:40;;;;;;;19.47;17.97;;;;;;;22.85;21.66;96952.16;6134755;28;102861;-43
2022/03/19 02:43:42;;;;;;;18.60;17.03;;;;;;;22.83;21.82;96959.59;6133904;28;102978;-43
2022/03/19 02:46:50;;;;;;;18.57;16.90;;;;;;;22.82;21.65;96956.13;6131348;28;103380;-43
2022/03/19 02:49:52;;;;;;;17.70;16.30;;;;;;;22.81;21.65;96965.94;6129168;28;104132;-45
2022/03/19 02:52:55;;;;;;;15.80;14.50;;;;;;;22.81;21.51;96971.28;6132047;28;103103;-43
2022/03/19 02:55:57;;;;;;;15.37;14.17;;;;;;;22.80;21.61;96968.88;6133942;28;103198;-44
2022/03/19 02:59:12;;;;;;;14.87;13.67;;;;;;;22.81;21.68;96963.28;6131929;28;102785;-43
2022/03/19 03:02:15;;;;;;;15.13;13.93;;;;;;;22.82;21.73;96966.78;6123694;28;103390;-45
2022/03/19 03:05:17;;;;;;;14.90;13.70;;;;;;;22.83;21.51;96973.72;6133220;28;102863;-43
2022/03/19 03:08:19;;;;;;;14.57;13.37;;;;;;;22.82;21.67;96966.78;6133278;28;104333;-44
2022/03/19 03:11:21;;;;;;;14.53;13.33;;;;;;;22.83;21.51;96967.59;6126652;28;105086;-43
2022/03/19 03:14:23;;;;;;;13.20;12.20;;;;;;;22.81;21.37;96965.94;6134260;28;102846;-44
2022/03/19 03:17:25;;;;;;;13.50;12.50;;;;;;;22.83;21.50;96968.38;6129440;28;102859;-43
2022/03/19 03:20:26;;;;;;;13.53;12.47;;;;;;;22.83;21.60;96967.59;6131677;28;102926;-44
2022/03/19 03:23:28;;;;;;;12.93;11.90;;;;;;;22.83;21.31;96964.91;6128768;28;103445;-43
2022/03/19 03:26:30;;;;;;;12.80;11.80;;;;;;;22.83;21.51;96967.59;6132493;28;103416;-45
2022/03/19 03:29:32;;;;;;;12.60;11.53;;;;;;;22.82;21.40;96974.78;6131659;28;102878;-43
2022/03/19 03:32:34;;;;;;;12.80;11.80;;;;;;;22.83;21.71;96970.25;6128054;28;102820;-44
2022/03/19 03:35:36;;;;;;;12.37;11.37;;;;;;;22.81;21.59;96973.13;6131094;28;102850;-43
2022/03/19 03:38:39;;;;;;;12.13;11.23;;;;;;;22.80;21.59;96974.19;6133259;28;103380;-44
2022/03/19 03:41:41;;;;;;;12.77;11.87;;;;;;;22.80;21.51;96974.19;6131143;28;102822;-43
2022/03/19 03:44:42;;;;;;;12.00;11.07;;;;;;;22.80;21.29;96969.69;6126817;28;103057;-43
2022/03/19 03:47:44;;;;;;;12.20;11.20;;;;;;;22.80;21.55;96968.88;6132532;28;102726;-43
2022/03/19 03:50:51;;;;;;;12.50;11.40;;;;;;;22.81;21.54;96970.47;6134605;28;103419;-43
2022/03/19 03:53:53;;;;;;;12.10;11.10;;;;;;;22.80;21.46;96974.19;6131764;28;102820;-44
2022/03/19 03:56:54;;;;;;;11.83;10.87;;;;;;;22.81;21.26;96978.47;6127345;28;102888;-43
2022/03/19 03:59:56;;;;;;;11.27;10.37;;;;;;;22.80;21.03;96966.22;6131685;28;103343;-44
2022/03/19 04:02:58;;;;;;;12.03;11.03;;;;;;;22.80;21.08;96982.19;6130465;28;102880;-44
2022/03/19 04:06:00;;;;;;;11.37;10.47;;;;;;;22.80;21.32;96972.34;6120445;28;102788;-44
2022/03/19 04:09:02;;;;;;;11.80;10.87;;;;;;;22.81;21.32;96970.47;6128398;28;103183;-43
2022/03/19 04:12:04;;;;;;;12.23;11.20;;;;;;;22.80;21.31;96968.88;6131944;28;102746;-44
2022/03/19 04:15:07;;;;;;;11.83;10.93;;;;;;;22.80;21.22;96966.22;6133729;28;103339;-44
2022/03/19 04:18:08;;;;;;;11.63;10.73;;;;;;;22.80;21.20;96971.53;6126321;28;102833;-45
2022/03/19 04:21:10;;;;;;;11.43;10.53;;;;;;;22.80;20.97;96971.53;6130867;28;102852;-43
2022/03/19 04:24:12;;;;;;;12.00;10.90;;;;;;;22.79;21.16;96964.59;6120890;28;103291;-44
2022/03/19 04:27:14;;;;;;;11.80;10.90;;;;;;;22.78;21.46;96968.31;6128879;28;102837;-43
2022/03/19 04:30:18;;;;;;;12.50;11.50;;;;;;;22.78;21.48;96965.66;6131069;28;105002;-43
2022/03/19 04:33:21;;;;;;;12.17;11.27;;;;;;;22.78;21.52;96973.66;6136568;28;102785;-43
2022/03/19 04:36:35;;;;;;;12.47;11.37;;;;;;;22.78;20.85;96968.31;6135278;28;103234;-43
2022/03/19 04:39:37;;;;;;;12.73;11.73;;;;;;;22.85;21.06;96973.50;6110252;28;103714;-45
2022/03/19 04:42:39;;;;;;;10.57;9.67;;;;;;;22.88;21.29;96971.09;6136142;28;103036;-45
2022/03/19 04:45:42;;;;;;;10.80;9.90;;;;;;;22.95;20.93;96966.34;6134750;28;102700;-44
2022/03/19 04:48:45;;;;;;;10.50;9.73;;;;;;;22.98;20.71;96981.00;6136380;28;104441;-45
2022/03/19 04:51:48;;;;;;;11.07;10.20;;;;;;;22.97;20.75;96966.06;6130181;28;103193;-45
2022/03/19 04:54:50;;;;;;;10.73;9.83;;;;;;;22.98;21.00;96962.34;6136228;28;102808;-45
2022/03/19 04:57:52;;;;;;;10.63;9.73;;;;;;;22.98;20.91;96965.81;6137148;28;102769;-45
2022/03/19 05:00:54;;;;;;;11.10;10.17;;;;;;;22.98;20.27;96973.00;6130554;28;104271;-46
2022/03/19 05:03:56;;;;;;;10.17;9.37;;;;;;;22.99;20.91;96979.94;6136268;28;103013;-45
2022/03/19 05:06:58;;;;;;;10.17;9.37;;;;;;;22.98;20.60;96973.00;6140453;28;103100;-45
2022/03/19 05:13:21;;;;;;;10.20;9.37;;;;;;;22.99;20.62;96983.41;6129430;28;102795;-45
2022/03/19 05:16:23;;;;;;;9.47;8.73;;;;;;;22.97;20.51;96982.88;6136577;28;104459;-46
2022/03/19 05:19:25;;;;;;;9.40;8.70;;;;;;;22.98;20.91;96973.81;6136009;28;102726;-46
2022/03/19 05:22:29;;;;;;;8.80;8.10;;;;;;;22.98;20.82;96979.16;6133292;28;102851;-46
2022/03/19 05:25:31;;;;;;;10.00;9.10;;;;;;;23.00;20.93;96986.88;6123715;28;102813;-44
2022/03/19 05:28:32;;;;;;;9.87;9.07;;;;;;;22.98;20.57;96989.00;6136871;28;102809;-44
2022/03/19 05:31:54;;;;;;;9.17;8.40;;;;;;;23.03;20.86;96997.88;6134729;28;102794;-44
2022/03/19 05:34:56;;;;;;;8.37;7.70;;;;;;;23.06;20.81;96996.53;6129533;28;103264;-44
2022/03/19 05:37:59;;;;;;;8.90;8.20;;;;;;;23.08;20.54;96994.41;6135174;28;102753;-44
2022/03/19 05:41:01;;;;;;;9.00;8.20;;;;;;;23.08;20.74;96999.75;6135687;28;102802;-43
2022/03/19 05:44:03;;;;;;;8.87;8.10;;;;;;;23.09;20.40;96990.69;6145539;28;102778;-44
2022/03/19 05:47:05;;;;;;;8.70;8.00;;;;;;;23.09;20.37;96991.50;6122516;28;103073;-44
2022/03/19 05:50:08;;;;;;;9.77;8.90;;;;;;;23.10;20.33;97000.28;6136224;28;103398;-44
2022/03/19 05:53:09;;;;;;;8.83;8.13;;;;;;;23.16;20.26;96996.59;6132755;28;102974;-44
2022/03/19 05:56:11;;;;;;;8.70;7.90;;;;;;;23.16;20.42;96996.59;6127801;28;103146;-45
2022/03/19 05:59:13;;;;;;;8.87;8.07;;;;;;;23.08;20.95;97008.56;6130955;28;102745;-45
2022/03/19 06:02:15;;;;;;;10.00;9.20;;;;;;;23.03;20.95;97000.53;6140834;28;103130;-45
2022/03/19 06:05:16;;;;;;;9.70;8.90;;;;;;;23.04;20.57;97004.78;6130752;28;102957;-45
2022/03/19 06:08:18;;;;;;;9.67;8.87;;;;;;;23.08;20.57;97002.41;6128180;28;102733;-45
2022/03/19 06:11:20;;;;;;;9.50;8.70;;;;;;;23.13;20.93;97006.97;6134235;28;103842;-44
2022/03/19 06:14:22;;;;;;;9.80;8.80;;;;;;;23.15;20.62;96999.50;6133907;28;103337;-45
2022/03/19 06:17:24;;;;;;;11.27;9.10;;;;;;;23.13;20.69;97004.31;6134962;28;102803;-45
2022/03/19 06:20:26;;;;;;;11.00;10.00;;;;;;;23.08;20.14;96989.88;6130180;28;102822;-46
2022/03/19 06:23:28;;;;;;;10.50;9.60;;;;;;;22.93;20.57;96996.97;6134026;28;102772;-45
2022/03/19 06:26:30;;;;;;;10.90;9.90;;;;;;;23.02;20.15;96992.78;6133420;28;102800;-46
2022/03/19 06:29:32;;;;;;;13.13;11.83;;;;;;;23.05;19.78;97000.28;6130179;28;103205;-46
2022/03/19 06:32:37;;;;;;;13.53;10.50;;;;;;;23.03;19.42;97003.19;6134653;28;103152;-46
2022/03/19 06:39:03;;;;;;;11.43;9.63;;;;;;;23.33;19.09;96983.88;6134804;28;102698;-46
2022/03/19 06:42:05;;;;;;;10.07;9.13;;;;;;;23.41;19.31;96994.06;6130341;28;103535;-45
2022/03/19 06:45:07;;;;;;;11.10;8.43;;;;;;;23.38;19.38;96989.25;6134078;28;102786;-45
2022/03/19 06:48:09;;;;;;;12.13;10.60;;;;;;;23.30;19.39;96987.06;6132729;28;103671;-44
2022/03/19 06:51:11;;;;;;;11.63;10.27;;;;;;;23.28;19.57;96981.19;6126774;28;103253;-45
2022/03/19 06:54:18;;;;;;;12.30;11.03;;;;;;;23.27;18.46;96976.13;6134568;28;103200;-44
2022/03/19 06:57:20;;;;;;;14.20;10.63;;;;;;;23.40;19.19;96981.78;6133715;28;102683;-44
2022/03/19 07:00:22;;;;;;;22.03;11.13;;;;;;;23.22;19.01;96979.56;6134681;28;103127;-44
2022/03/19 07:03:24;;;;;;;39.53;14.27;;;;;;;23.07;19.03;96982.94;6166594;22;103195;-44
2022/03/19 07:06:26;;;;;;;18.67;11.80;;;;;;;23.04;19.57;96978.13;6180769;28;103232;-41
2022/03/19 07:09:49;;;;;;;13.33;12.13;;;;;;;22.90;19.24;96974.31;6180946;28;103327;-42
2022/03/19 07:12:55;;;;;;;14.00;12.60;;;;;;;22.87;18.95;96971.38;6181098;28;102778;-42
2022/03/19 07:15:57;;;;;;;13.27;12.03;;;;;;;22.81;18.73;96973.94;6182206;28;102873;-42
2022/03/19 07:18:59;;;;;;;13.20;11.87;;;;;;;22.74;18.09;96972.56;6180658;28;103308;-44
2022/03/19 07:22:01;;;;;;;13.10;11.73;;;;;;;22.40;19.33;96978.16;6177609;28;103556;-44
2022/03/19 07:25:03;;;;;;;12.20;11.10;;;;;;;22.68;19.34;96981.59;6176749;28;104228;-45
2022/03/19 07:28:11;;;;;;;12.23;10.83;;;;;;;22.79;18.32;96975.25;6183921;28;102761;-42
2022/03/19 07:31:12;;;;;;;11.20;10.10;;;;;;;22.78;18.55;96971.78;6182454;28;102787;-43
2022/03/19 07:34:15;;;;;;;11.57;10.47;;;;;;;22.74;18.83;96980.56;6181002;28;102937;-43
2022/03/19 07:37:16;;;;;;;12.87;10.37;;;;;;;22.82;21.14;96982.78;6177761;28;103156;-44
2022/03/19 07:41:45;;;;;;;13.73;12.40;;;;;;;22.75;20.49;96979.50;6184171;28;102877;-43
2022/03/19 07:43:42;;;;;;;13.80;12.30;;;;;;;22.94;18.46;96988.72;6184413;28;103245;-44
2022/03/19 07:46:44;;;;;;;12.80;11.50;;;;;;;22.72;20.16;96983.50;6177478;28;103167;-43
2022/03/19 07:49:45;;;;;;;13.90;12.50;;;;;;;22.80;19.53;96988.31;6182572;28;102794;-43
2022/03/19 07:52:48;;;;;;;15.00;13.67;;;;;;;22.87;19.36;96988.16;6180460;28;102876;-43
2022/03/19 07:55:50;;;;;;;14.47;13.17;;;;;;;22.85;19.62;96987.63;6178903;28;103290;-43
2022/03/19 07:58:52;;;;;;;14.90;13.47;;;;;;;22.81;20.27;96984.59;6175969;28;103079;-43
2022/03/19 08:01:54;;;;;;;14.27;12.87;;;;;;;22.93;22.95;96989.78;6181515;28;102824;-43
2022/03/19 08:04:56;;;;;;;16.17;14.73;;;;;;;21.15;20.16;96982.56;6182848;28;103126;-42
2022/03/19 08:07:58;;;;;;;15.27;13.80;;;;;;;22.07;21.51;96986.38;6178332;28;103562;-43
2022/03/19 08:11:01;;;;;;;14.37;12.93;;;;;;;22.61;20.99;96987.13;6179063;28;102742;-43
2022/03/19 08:14:04;;;;;;;14.00;12.70;;;;;;;22.84;20.22;96983.31;6182694;28;102993;-42
2022/03/19 08:17:06;;;;;;;13.27;12.17;;;;;;;23.08;20.20;96981.88;6181322;28;102961;-42
2022/03/19 08:20:08;;;;;;;13.43;12.03;;;;;;;23.23;20.12;96975.03;6175080;28;102885;-43
2022/03/19 08:23:11;;;;;;;14.20;12.80;;;;;;;23.33;20.35;96975.06;6182503;28;103088;-45
2022/03/19 08:26:13;;;;;;;13.57;12.37;;;;;;;23.40;19.85;96970.31;6164541;28;103271;-42
2022/03/19 08:29:15;;;;;;;12.43;11.30;;;;;;;23.48;19.90;96974.34;6182408;28;102789;-42
2022/03/19 08:32:17;;;;;;;13.23;11.93;;;;;;;23.53;20.22;96963.72;6176355;28;102915;-42
2022/03/19 08:35:18;;;;;;;12.50;11.40;;;;;;;23.49;20.34;96968.75;6180928;28;103017;-42
2022/03/19 08:41:41;;;;;;;12.70;11.60;;;;;;;23.61;21.30;96966.69;6176401;28;103098;-44
2022/03/19 08:44:43;;;;;;;16.90;15.23;;;;;;;23.65;23.01;96961.63;6182157;28;102937;-43
2022/03/19 08:47:45;;;;;;;15.17;13.80;;;;;;;23.80;23.85;96964.34;6182088;28;102769;-43
2022/03/19 08:50:47;;;;;;;15.90;14.50;;;;;;;23.84;25.00;96961.94;6181096;28;102822;-44
2022/03/19 08:53:49;;;;;;;21.40;19.23;;;;;;;23.88;26.24;96958.50;6174838;28;102827;-43
2022/03/19 08:56:52;;;;;;;19.80;18.03;;;;;;;23.95;25.96;96955.56;6180153;28;102740;-43
2022/03/19 08:59:54;;;;;;;24.00;21.83;;;;;;;23.97;26.93;96953.44;6179635;28;102824;-43
2022/03/19 09:03:14;;;;;;;22.73;20.83;;;;;;;24.00;26.94;96953.72;6176874;28;102786;-43
2022/03/19 09:06:17;;;;;;;17.07;15.47;;;;;;;23.92;29.92;96953.44;6181176;28;103380;-43
2022/03/19 09:09:19;;;;;;;15.80;14.30;;;;;;;23.96;30.71;96957.19;6181828;28;102919;-43
2022/03/19 09:12:23;;;;;;;14.90;13.40;;;;;;;23.91;31.55;96957.97;6181627;28;103206;-44
2022/03/19 09:15:26;;;;;;;13.20;11.87;;;;;;;23.93;31.20;96953.16;6171022;28;103417;-43
2022/03/19 09:18:29;;;;;;;15.43;14.17;;;;;;;23.97;30.03;96953.44;6186164;28;102742;-44
2022/03/19 09:21:30;;;;;;;15.57;14.00;;;;;;;23.97;30.02;96950.78;6186045;28;103064;-43
2022/03/19 09:24:32;;;;;;;23.43;15.20;;;;;;;23.91;29.96;96954.50;6189676;28;104609;-44
2022/03/19 09:27:34;;;;;;;22.43;16.23;;;;;;;23.93;29.66;96952.38;6178206;28;105333;-43
2022/03/19 09:30:36;;;;;;;18.63;16.40;;;;;;;23.96;29.41;96949.16;6185728;28;103097;-44
2022/03/19 09:33:42;;;;;;;20.03;18.20;;;;;;;23.90;29.89;96947.56;6183390;28;102761;-44
2022/03/19 09:36:46;;;;;;;20.60;18.73;;;;;;;23.88;30.22;96945.16;6178997;28;102932;-46
2022/03/19 09:39:49;;;;;;;23.20;20.13;;;;;;;23.74;30.05;96948.59;6184223;28;103594;-44
2022/03/19 09:42:53;;;;;;;20.47;18.43;;;;;;;23.62;30.21;96946.16;6185564;28;102764;-44
2022/03/19 09:45:55;;;;;;;23.30;20.87;;;;;;;23.66;30.91;96952.56;6186680;28;103157;-43
2022/03/19 09:48:57;;;;;;;20.60;18.40;;;;;;;23.60;31.63;96935.72;6179284;28;102870;-43
2022/03/19 09:52:02;;;;;;;16.87;15.20;;;;;;;23.35;27.24;96931.09;6185868;28;102704;-44
2022/03/19 09:55:05;;;;;;;14.63;13.27;;;;;;;23.33;27.88;96935.06;6184568;28;102942;-44
2022/03/19 09:58:07;;;;;;;15.03;13.60;;;;;;;23.40;26.07;96931.09;6182391;28;103197;-43
2022/03/19 10:01:09;;;;;;;14.30;12.70;;;;;;;23.45;24.93;96935.66;6183179;28;102831;-44
2022/03/19 10:04:12;;;;;;;13.80;10.97;;;;;;;23.47;25.07;96927.38;6184059;28;103052;-44
2022/03/19 10:10:42;;;;;;;12.20;11.10;;;;;;;23.45;24.51;96926.84;6178941;28;102843;-43
2022/03/19 10:13:46;;;;;;;12.93;10.70;;;;;;;23.46;23.95;96923.13;6184588;28;102670;-44
2022/03/19 10:16:52;;;;;;;11.80;10.67;;;;;;;23.39;23.93;96928.69;6167334;28;103277;-44
2022/03/19 10:19:58;;;;;;;9.90;9.13;;;;;;;23.38;24.84;96924.44;6185234;28;103320;-44
2022/03/19 10:23:00;;;;;;;11.43;10.23;;;;;;;23.37;24.04;96914.84;6179440;28;103356;-43
2022/03/19 10:26:02;;;;;;;10.67;9.60;;;;;;;23.33;25.17;96921.72;6205066;28;102674;-44
2022/03/19 10:29:11;;;;;;;9.93;9.13;;;;;;;23.29;24.47;96925.97;6184112;28;102744;-45
2022/03/19 10:32:13;;;;;;;10.83;8.33;;;;;;;23.30;24.81;96925.72;6179692;28;103175;-44
2022/03/19 10:35:28;;;;;;;10.53;8.20;;;;;;;23.32;25.04;96928.13;6184602;28;102787;-44
2022/03/19 10:38:42;;;;;;;9.60;8.80;;;;;;;23.20;24.57;96924.91;6184898;28;102693;-44
2022/03/19 10:41:45;;;;;;;9.23;8.40;;;;;;;23.11;24.33;96919.25;6159197;28;102929;-44
2022/03/19 10:44:48;;;;;;;16.67;11.70;;;;;;;23.03;24.61;96925.09;6179106;28;102874;-44
2022/03/19 10:47:53;;;;;;;16.37;9.40;;;;;;;22.98;24.08;96920.50;6183041;28;103047;-43
2022/03/19 10:50:55;;;;;;;12.43;10.57;;;;;;;22.94;23.71;96922.09;6183506;28;103081;-44
2022/03/19 10:53:59;;;;;;;10.43;9.30;;;;;;;22.89;22.99;96919.41;6178217;28;102764;-43
2022/03/19 10:57:03;;;;;;;12.03;10.20;;;;;;;22.90;23.59;96918.34;6183566;28;103027;-44
2022/03/19 11:00:06;;;;;;;27.17;23.37;;;;;;;22.96;25.35;96917.28;6184745;28;103028;-43
2022/03/19 11:03:12;;;;;;;36.30;32.40;;;;;;;23.02;25.58;96918.16;6183306;28;102879;-43
2022/03/19 11:06:19;;;;;;;36.47;31.90;;;;;;;23.02;25.68;96915.47;6178630;28;102900;-44
2022/03/19 11:09:26;;;;;;;30.93;27.47;;;;;;;23.00;25.78;96913.03;6184525;28;102695;-43
2022/03/19 11:12:31;;;;;;;31.23;27.93;;;;;;;23.00;25.69;96913.03;6181660;28;103178;-44
2022/03/19 11:15:34;;;;;;;24.07;21.37;;;;;;;22.98;24.67;96912.50;6180100;28;103138;-43
2022/03/19 11:18:39;;;;;;;21.23;19.07;;;;;;;23.02;25.22;96908.28;6182600;28;102743;-44
2022/03/19 11:21:41;;;;;;;18.67;16.77;;;;;;;23.08;25.00;96903.78;6181870;28;103174;-43
2022/03/19 11:25:08;;;;;;;21.60;16.80;;;;;;;23.07;24.40;96897.63;6182610;28;102762;-44
2022/03/19 11:28:15;;;;;;;20.17;17.97;;;;;;;23.16;24.67;96899.78;6176963;28;103746;-44
2022/03/19 11:31:26;;;;;;;20.80;17.87;;;;;;;23.15;25.27;96891.00;6183234;28;103226;-44
2022/03/19 11:34:43;;;;;;;18.53;16.20;;;;;;;23.17;26.00;96890.72;6176688;28;103374;-44
2022/03/19 11:38:11;;;;;;;18.67;15.00;;;;;;;23.17;26.04;96888.06;6177469;28;103187;-44
2022/03/19 11:41:18;;;;;;;19.50;16.20;;;;;;;23.22;26.13;96888.91;6181955;28;102819;-46
2022/03/19 11:44:20;;;;;;;16.57;14.97;;;;;;;23.17;26.10;96885.41;6180452;28;103236;-44
2022/03/19 11:47:33;;;;;;;16.00;14.50;;;;;;;23.07;26.07;96870.97;6183319;28;103208;-44
2022/03/19 11:50:36;;;;;;;16.37;14.87;;;;;;;23.09;26.40;96879.50;6174680;28;103149;-43
2022/03/19 11:53:51;;;;;;;17.07;15.47;;;;;;;23.04;25.96;96855.50;6165470;28;103391;-43
2022/03/19 11:57:03;;;;;;;16.77;15.17;;;;;;;23.06;25.89;96865.91;6177125;28;103966;-44
2022/03/19 12:00:05;;;;;;;17.53;15.73;;;;;;;23.01;26.12;96861.34;6175797;28;102861;-43
2022/03/19 12:03:19;;;;;;;18.37;16.47;;;;;;;23.00;26.18;96862.41;6180630;28;103316;-44
2022/03/19 12:06:32;;;;;;;18.50;16.83;;;;;;;22.99;25.92;96855.47;6178837;28;103288;-45
2022/03/19 12:09:39;;;;;;;20.20;18.30;;;;;;;22.98;26.13;96856.53;6179616;28;102778;-43
2022/03/19 12:12:42;;;;;;;21.80;19.90;;;;;;;22.96;25.97;96850.66;6174325;28;103276;-43
2022/03/19 12:15:44;;;;;;;23.57;21.30;;;;;;;22.94;25.81;96863.44;6178581;28;102751;-43
2022/03/19 12:18:53;;;;;;;24.50;22.40;;;;;;;22.88;26.09;96845.84;6205371;28;103159;-43
2022/03/19 12:21:55;;;;;;;27.03;24.33;;;;;;;22.88;25.98;96840.50;6166870;28;103782;-43
2022/03/19 12:25:26;;;;;;;27.93;25.53;;;;;;;22.91;25.83;96852.50;6199750;28;102809;-43
2022/03/19 12:28:29;;;;;;;29.93;26.70;;;;;;;22.90;26.09;96851.69;6208042;28;103391;-42
2022/03/19 12:31:37;;;;;;;30.90;28.10;;;;;;;22.91;25.91;96850.66;6206393;28;102693;-43
2022/03/19 12:34:40;;;;;;;32.97;30.17;;;;;;;22.92;26.12;96846.13;6201399;28;103688;-43
2022/03/19 12:37:53;;;;;;;32.60;29.70;;;;;;;22.92;26.04;96838.13;6189555;28;103090;-43
2022/03/19 12:44:24;;;;;;;35.30;31.83;;;;;;;22.90;26.31;96853.56;6175851;28;103151;-43
2022/03/19 12:47:26;;;;;;;32.37;29.47;;;;;;;22.88;26.51;96853.84;6180858;28;102830;-43
2022/03/19 12:50:28;;;;;;;34.87;31.90;;;;;;;22.89;26.57;96831.44;6184593;28;102691;-43
2022/03/19 12:53:43;;;;;;;35.53;32.33;;;;;;;22.82;26.39;96830.88;6186592;28;103373;-44
2022/03/19 12:56:45;;;;;;;36.57;33.37;;;;;;;22.88;26.27;96834.38;6180336;28;102743;-44
2022/03/19 12:59:55;;;;;;;36.83;33.43;;;;;;;22.88;26.80;96834.38;6186607;28;102829;-43
2022/03/19 13:02:57;;;;;;;39.87;36.17;;;;;;;22.89;26.83;96834.13;6161889;28;103452;-44
2022/03/19 13:05:59;;;;;;;41.20;37.63;;;;;;;22.85;26.51;96833.03;6161965;28;103377;-43
2022/03/19 13:09:00;;;;;;;40.07;36.60;;;;;;;22.80;26.70;96822.31;6184463;28;102783;-44
2022/03/19 13:12:05;;;;;;;39.43;36.03;;;;;;;22.84;26.81;96830.59;6186507;28;102785;-44
2022/03/19 13:15:15;;;;;;;40.47;36.87;;;;;;;22.83;27.04;96829.81;6186310;28;103316;-44
2022/03/19 13:18:32;;;;;;;40.50;36.90;;;;;;;22.81;26.44;96832.69;6180096;28;102846;-44
2022/03/19 13:21:35;;;;;;;40.70;37.03;;;;;;;22.82;26.47;96830.88;6184826;28;102681;-44
2022/03/19 13:24:38;;;;;;;41.50;37.70;;;;;;;22.77;26.84;96815.63;6194473;28;102751;-45
2022/03/19 13:27:40;;;;;;;39.10;35.73;;;;;;;22.78;26.61;96821.75;6180708;28;102946;-44
2022/03/19 13:30:49;;;;;;;38.60;35.17;;;;;;;22.78;26.99;96825.22;6185179;28;102756;-44
2022/03/19 13:33:51;;;;;;;39.20;35.70;;;;;;;22.83;26.89;96821.81;6183500;28;102727;-44
2022/03/19 13:37:01;;;;;;;37.50;34.17;;;;;;;22.80;27.01;96822.31;6170402;28;102768;-44
2022/03/19 13:40:06;;;;;;;36.90;33.60;;;;;;;22.81;27.03;96824.69;6180277;28;103199;-44
2022/03/19 13:43:07;;;;;;;36.70;33.50;;;;;;;22.84;26.50;96820.75;6185988;28;103287;-44
2022/03/19 13:46:11;;;;;;;35.03;32.10;;;;;;;22.81;26.79;96830.03;6185180;28;102767;-44
2022/03/19 13:49:17;;;;;;;35.00;32.10;;;;;;;22.74;27.09;96812.69;6183476;28;103191;-44
2022/03/19 13:53:01;;;;;;;34.03;31.20;;;;;;;22.81;26.94;96829.22;6178479;28;103487;-44
2022/03/19 13:56:04;;;;;;;34.30;31.40;;;;;;;22.80;26.95;96817.78;6152156;28;102756;-44
2022/03/19 13:59:07;;;;;;;33.30;30.50;;;;;;;22.79;26.62;96816.16;6185573;28;102701;-44
2022/03/19 14:02:09;;;;;;;32.70;30.00;;;;;;;22.83;26.65;96829.00;6178365;28;103120;-44
2022/03/19 14:05:11;;;;;;;33.23;30.27;;;;;;;22.85;27.04;96829.56;6181200;28;102890;-44
2022/03/19 14:08:18;;;;;;;33.00;29.90;;;;;;;22.75;27.21;96822.28;6184726;28;103230;-44
2022/03/19 14:11:20;;;;;;;27.87;25.57;;;;;;;22.89;26.77;96823.44;6181979;28;103270;-44
2022/03/19 14:14:21;;;;;;;28.83;26.17;;;;;;;22.92;26.51;96827.44;6178860;28;103231;-43
2022/03/19 14:17:41;;;;;;;25.67;23.47;;;;;;;23.01;26.25;96829.38;6182192;28;102704;-44
2022/03/19 14:20:43;;;;;;;26.80;24.53;;;;;;;23.10;25.75;96825.13;6168225;28;103279;-44